Time;durP1;ratioP1;P1;durP2;ratioP2;P2;SDS_P1;SDS_P2;PMS_P1;PMS_P2;Temp;Humidity;BMP_temperature;BMP_pressure;BME280_temperature;BME280_humidity;BME280_pressure;Samples;Min_cycle;Max_cycle;Signal;HPM_P1;HPM_P2
2022/11/03 00:02:01;;;;;;;;;;;;;;;9.32;50.37;101369.38;4939337;28;128302;-65
2022/11/03 00:04:27;;;;;;;;;;;;;;;9.30;50.80;101366.91;4941755;28;127390;-65
2022/11/03 00:06:53;;;;;;;;;;;;;;;9.29;51.19;101372.53;4944493;28;98290;-65
2022/11/03 00:09:19;;;;;;;;;;;;;;;9.28;51.41;101374.41;4936047;28;97823;-64
2022/11/03 00:11:46;;;;;;;;;;;;;;;9.29;51.25;101361.78;4941987;28;98657;-66
2022/11/03 00:14:13;;;;;;;;;;;;;;;9.28;50.93;101371.72;4939642;28;111266;-64
2022/11/03 00:16:39;;;;;;;;;;;;;;;9.28;51.26;101362.84;4939320;28;99226;-64
2022/11/03 00:19:05;;;;;;;;;;;;;;;9.28;51.07;101362.84;4939995;28;118638;-64
2022/11/03 00:21:31;;;;;;;;;;;;;;;9.28;51.27;101355.59;4940894;28;98762;-66
2022/11/03 00:23:57;;;;;;;;;;;;;;;9.27;50.72;101345.84;4939473;28;127031;-64
2022/11/03 00:26:24;;;;;;;;;;;;;;;9.29;50.76;101353.72;4940614;28;98647;-65
2022/11/03 00:28:55;;;;;;;;;;;;;;;9.28;50.88;101350.19;4942037;28;110861;-64
2022/11/03 00:31:25;;;;;;;;;;;;;;;9.28;51.16;101336.75;4941336;28;99113;-66
2022/11/03 00:33:51;;;;;;;;;;;;;;;9.28;51.19;101335.94;4940091;28;99277;-64
2022/11/03 00:36:22;;;;;;;;;;;;;;;9.28;50.83;101334.06;4944598;28;98011;-63
2022/11/03 00:38:48;;;;;;;;;;;;;;;9.28;50.65;101333.25;4940738;28;98122;-64
2022/11/03 00:41:17;;;;;;;;;;;;;;;9.27;50.57;101329.72;4941521;28;115166;-64
2022/11/03 00:43:43;;;;;;;;;;;;;;;9.28;51.44;101322.50;4939839;28;98259;-63
2022/11/03 00:46:08;;;;;;;;;;;;;;;9.27;51.06;101331.59;4941322;28;98726;-64
2022/11/03 00:48:35;;;;;;;;;;;;;;;9.26;50.89;101330.78;4940265;28;116820;-64
2022/11/03 00:51:17;;;;;;;;;;;;;;;9.25;50.95;101329.16;4937829;28;118699;-64
2022/11/03 00:53:43;;;;;;;;;;;;;;;9.23;50.74;101325.06;4938091;28;105048;-65
2022/11/03 00:56:15;;;;;;;;;;;;;;;9.21;50.78;101321.78;4942578;28;101649;-66
2022/11/03 00:58:42;;;;;;;;;;;;;;;9.19;51.13;101323.88;4939688;28;98912;-65
2022/11/03 01:01:18;;;;;;;;;;;;;;;9.17;50.98;101312.56;4920352;28;98131;-65
2022/11/03 01:06:48;;;;;;;;;;;;;;;9.15;50.72;101318.16;4921541;28;100218;-64
2022/11/03 01:06:51;;;;;;;;;;;;;;;9.12;50.34;101307.91;4941458;28;98179;-64
2022/11/03 01:09:29;;;;;;;;;;;;;;;9.09;51.12;101309.19;4940771;28;97999;-66
2022/11/03 01:12:08;;;;;;;;;;;;;;;9.06;50.54;101309.66;4956687;28;106819;-66
2022/11/03 01:14:39;;;;;;;;;;;;;;;9.03;50.88;101307.44;4939661;28;98338;-64
2022/11/03 01:17:12;;;;;;;;;;;;;;;9.00;51.14;101309.78;4938896;28;117004;-64
2022/11/03 01:19:38;;;;;;;;;;;;;;;8.98;51.02;101310.00;4939412;28;98846;-65
2022/11/03 01:22:04;;;;;;;;;;;;;;;8.96;51.17;101314.81;4937104;28;126635;-66
2022/11/03 01:24:30;;;;;;;;;;;;;;;8.94;51.08;101306.16;4939619;28;114911;-64
2022/11/03 01:26:56;;;;;;;;;;;;;;;8.93;50.54;101309.09;4915303;28;127883;-64
2022/11/03 01:29:22;;;;;;;;;;;;;;;8.91;50.95;101309.31;4942346;28;97996;-64
2022/11/03 01:31:48;;;;;;;;;;;;;;;8.90;50.71;101304.19;4940050;28;126051;-66
2022/11/03 01:34:15;;;;;;;;;;;;;;;8.89;50.70;101305.25;4942452;28;98816;-64
2022/11/03 01:36:41;;;;;;;;;;;;;;;8.87;51.32;101305.47;4940748;28;98036;-64
2022/11/03 01:39:10;;;;;;;;;;;;;;;8.85;51.18;101302.22;4940614;28;99069;-65
2022/11/03 01:41:36;;;;;;;;;;;;;;;8.82;51.20;101291.91;4941877;28;98500;-64
2022/11/03 01:44:08;;;;;;;;;;;;;;;8.80;50.69;101304.75;4940535;28;128571;-65
2022/11/03 01:46:52;;;;;;;;;;;;;;;8.78;51.07;101296.13;4938637;28;98272;-64
2022/11/03 01:49:30;;;;;;;;;;;;;;;8.75;50.98;101291.22;4936645;28;97732;-65
2022/11/03 01:52:08;;;;;;;;;;;;;;;8.72;51.07;101287.13;4938237;28;123462;-64
2022/11/03 01:54:35;;;;;;;;;;;;;;;8.69;51.07;101290.31;4940659;28;123631;-64
2022/11/03 01:57:01;;;;;;;;;;;;;;;8.67;51.39;101284.31;4931050;28;126162;-64
2022/11/03 01:59:26;;;;;;;;;;;;;;;8.65;50.88;101286.44;4921900;28;117404;-64
2022/11/03 02:01:52;;;;;;;;;;;;;;;8.63;51.18;101291.22;4951076;28;127188;-64
2022/11/03 02:04:26;;;;;;;;;;;;;;;8.63;50.99;101285.03;4934018;28;127988;-63
2022/11/03 02:07:07;;;;;;;;;;;;;;;8.62;50.54;101283.41;4956843;28;101601;-64
2022/11/03 02:09:33;;;;;;;;;;;;;;;8.62;50.69;101291.47;4931529;28;112743;-64
2022/11/03 02:12:08;;;;;;;;;;;;;;;8.60;50.65;101281.75;4937100;28;127952;-64
2022/11/03 02:14:36;;;;;;;;;;;;;;;8.61;50.88;101277.22;4939333;28;98707;-64
2022/11/03 02:17:04;;;;;;;;;;;;;;;8.62;50.62;101278.03;4939383;28;97938;-65
2022/11/03 02:19:43;;;;;;;;;;;;;;;8.62;50.75;101284.22;4934715;28;103693;-64
2022/11/03 02:22:28;;;;;;;;;;;;;;;8.63;50.92;101282.34;4922282;28;98668;-65
2022/11/03 02:24:58;;;;;;;;;;;;;;;8.63;50.78;101290.41;4942619;28;122546;-64
2022/11/03 02:27:24;;;;;;;;;;;;;;;8.63;50.62;101285.84;4940559;28;101537;-64
2022/11/03 02:29:50;;;;;;;;;;;;;;;8.62;51.43;101276.16;4958863;28;97881;-65
2022/11/03 02:32:23;;;;;;;;;;;;;;;8.61;51.13;101277.22;4917433;28;109536;-65
2022/11/03 02:34:50;;;;;;;;;;;;;;;8.60;51.03;101278.25;4939962;28;98809;-65
2022/11/03 02:37:20;;;;;;;;;;;;;;;8.57;51.33;101268.00;4940309;28;98523;-65
2022/11/03 02:39:57;;;;;;;;;;;;;;;8.56;50.96;101271.72;4942339;28;98143;-64
2022/11/03 02:42:24;;;;;;;;;;;;;;;8.53;50.77;101270.31;4936973;28;125053;-64
2022/11/03 02:44:50;;;;;;;;;;;;;;;8.52;51.10;101265.16;4934935;28;128714;-64
2022/11/03 02:47:16;;;;;;;;;;;;;;;8.48;50.79;101264.81;4936355;28;125320;-63
2022/11/03 02:49:46;;;;;;;;;;;;;;;8.49;50.66;101258.41;4941548;28;105211;-64
2022/11/03 02:52:30;;;;;;;;;;;;;;;8.48;50.75;101259.44;4951877;28;98661;-64
2022/11/03 02:54:56;;;;;;;;;;;;;;;8.47;50.64;101249.75;4944077;28;98350;-64
2022/11/03 02:57:24;;;;;;;;;;;;;;;8.46;50.77;101248.13;4940374;28;126596;-64
2022/11/03 02:59:57;;;;;;;;;;;;;;;8.47;50.84;101251.63;4941438;28;112686;-65
2022/11/03 03:02:26;;;;;;;;;;;;;;;8.45;50.94;101246.50;4946005;28;122761;-64
2022/11/03 03:04:54;;;;;;;;;;;;;;;8.46;51.06;101241.94;4948219;28;124112;-64
2022/11/03 03:07:31;;;;;;;;;;;;;;;8.43;51.25;101243.22;4942588;28;120639;-65
2022/11/03 03:10:10;;;;;;;;;;;;;;;8.42;51.26;101236.22;4955835;28;112014;-64
2022/11/03 03:12:37;;;;;;;;;;;;;;;8.42;50.84;101235.41;4952886;28;100572;-64
2022/11/03 03:15:03;;;;;;;;;;;;;;;8.40;50.76;101230.25;4939137;28;99196;-64
2022/11/03 03:17:49;;;;;;;;;;;;;;;8.40;50.63;101240.97;4939082;28;119286;-64
2022/11/03 03:20:23;;;;;;;;;;;;;;;8.40;50.72;101229.44;4959393;28;97846;-65
2022/11/03 03:22:51;;;;;;;;;;;;;;;8.40;51.14;101235.63;4938550;28;98556;-65
2022/11/03 03:25:26;;;;;;;;;;;;;;;8.41;50.74;101231.06;4939620;28;97802;-65
2022/11/03 03:28:09;;;;;;;;;;;;;;;8.42;51.12;101227.34;4936744;28;98114;-64
2022/11/03 03:30:35;;;;;;;;;;;;;;;8.44;50.95;101225.22;4926031;28;98303;-65
2022/11/03 03:33:00;;;;;;;;;;;;;;;8.45;50.97;101225.00;4934823;28;98071;-64
2022/11/03 03:35:29;;;;;;;;;;;;;;;8.47;50.54;101219.38;4937434;28;128240;-65
2022/11/03 03:38:03;;;;;;;;;;;;;;;8.49;50.47;101217.25;4919181;28;100138;-65
2022/11/03 03:40:31;;;;;;;;;;;;;;;8.50;50.71;101211.66;4953800;28;98270;-65
2022/11/03 03:42:57;;;;;;;;;;;;;;;8.51;50.69;101199.84;4938842;28;98456;-64
2022/11/03 03:45:24;;;;;;;;;;;;;;;8.51;51.13;101197.19;4937490;28;126141;-64
2022/11/03 03:47:50;;;;;;;;;;;;;;;8.53;50.84;101184.34;4954863;28;98216;-64
2022/11/03 03:50:16;;;;;;;;;;;;;;;8.54;51.24;101182.47;4919173;28;118691;-64
2022/11/03 03:52:42;;;;;;;;;;;;;;;8.54;50.83;101187.84;4921732;28;128558;-66
2022/11/03 03:55:14;;;;;;;;;;;;;;;8.53;51.04;101184.34;4936051;28;112842;-64
2022/11/03 03:57:40;;;;;;;;;;;;;;;8.53;50.83;101189.72;4928210;28;125752;-65
2022/11/03 04:00:07;;;;;;;;;;;;;;;8.52;50.74;101188.06;4938016;28;117581;-65
2022/11/03 04:02:33;;;;;;;;;;;;;;;8.52;51.19;101179.19;4936931;28;99186;-65
2022/11/03 04:04:59;;;;;;;;;;;;;;;8.51;50.92;101177.56;4939977;28;98794;-64
2022/11/03 04:10:10;;;;;;;;;;;;;;;8.51;51.33;101161.44;4935518;28;97862;-65
2022/11/03 04:23:35;;;;;;;;;;;;;;;8.44;51.19;101158.03;4957320;28;98030;-64
2022/11/03 04:26:01;;;;;;;;;;;;;;;8.42;51.19;101154.78;4941507;28;127512;-64
2022/11/03 04:28:27;;;;;;;;;;;;;;;8.39;50.86;101149.88;4939066;28;127509;-64
2022/11/03 04:30:57;;;;;;;;;;;;;;;8.38;50.58;101149.06;4956436;28;98065;-64
2022/11/03 04:33:23;;;;;;;;;;;;;;;8.35;51.21;101141.44;4939999;28;98316;-64
2022/11/03 04:35:49;;;;;;;;;;;;;;;8.32;50.75;101140.03;4942599;28;98365;-65
2022/11/03 04:38:15;;;;;;;;;;;;;;;8.31;51.06;101135.72;4941860;28;127964;-64
2022/11/03 04:40:44;;;;;;;;;;;;;;;8.27;50.58;101131.88;4946723;28;97868;-64
2022/11/03 04:43:15;;;;;;;;;;;;;;;8.26;50.75;101124.88;4940117;28;124489;-65
2022/11/03 04:45:45;;;;;;;;;;;;;;;8.24;50.90;101124.28;4943066;28;98433;-64
2022/11/03 04:48:23;;;;;;;;;;;;;;;8.21;50.73;101116.69;4957179;28;99525;-64
2022/11/03 04:50:52;;;;;;;;;;;;;;;8.19;51.21;101123.38;4941885;28;112584;-64
2022/11/03 04:53:19;;;;;;;;;;;;;;;8.16;50.60;101129.22;4938757;28;122466;-64
2022/11/03 04:55:45;;;;;;;;;;;;;;;8.16;50.97;101126.53;4943228;28;98442;-66
2022/11/03 04:58:34;;;;;;;;;;;;;;;8.13;50.85;101130.47;4938178;28;97883;-64
2022/11/03 05:01:00;;;;;;;;;;;;;;;8.11;51.14;101128.03;4938911;28;114051;-65
2022/11/03 05:03:31;;;;;;;;;;;;;;;8.09;51.20;101132.00;4939932;28;121211;-64
2022/11/03 05:05:57;;;;;;;;;;;;;;;8.07;51.05;101131.44;4954632;28;124880;-64
2022/11/03 05:08:23;;;;;;;;;;;;;;;8.04;51.45;101135.41;4937417;28;126656;-63
2022/11/03 05:10:49;;;;;;;;;;;;;;;8.03;50.68;101130.28;4954069;28;116530;-64
2022/11/03 05:13:22;;;;;;;;;;;;;;;8.02;51.15;101131.34;4939360;28;101705;-65
2022/11/03 05:15:48;;;;;;;;;;;;;;;7.99;50.85;101129.09;4938084;28;98679;-66
2022/11/03 05:18:34;;;;;;;;;;;;;;;7.97;51.15;101120.47;4939099;28;124727;-64
2022/11/03 05:21:06;;;;;;;;;;;;;;;7.94;50.77;101121.75;4938090;28;98102;-64
2022/11/03 05:23:40;;;;;;;;;;;;;;;7.93;50.76;101122.78;4943175;28;123263;-64
2022/11/03 05:26:11;;;;;;;;;;;;;;;7.91;50.63;101116.03;4955071;28;125217;-66
2022/11/03 05:28:41;;;;;;;;;;;;;;;7.87;50.83;101124.56;4939707;28;98596;-64
2022/11/03 05:31:24;;;;;;;;;;;;;;;7.85;50.46;101123.13;4942473;28;97835;-64
2022/11/03 05:33:57;;;;;;;;;;;;;;;7.83;51.07;101114.53;4943399;28;127423;-64
2022/11/03 05:36:24;;;;;;;;;;;;;;;7.80;50.76;101121.16;4941682;28;98911;-64
2022/11/03 05:38:52;;;;;;;;;;;;;;;7.77;50.92;101113.56;4954444;28;127300;-65
2022/11/03 05:41:22;;;;;;;;;;;;;;;7.77;50.95;101115.44;4942266;28;99708;-65
2022/11/03 05:44:01;;;;;;;;;;;;;;;7.74;51.17;101107.84;4939849;28;98312;-65
2022/11/03 05:46:28;;;;;;;;;;;;;;;7.76;50.93;101120.00;4944411;28;98880;-64
2022/11/03 05:48:54;;;;;;;;;;;;;;;7.75;51.05;101112.19;4941646;28;113184;-64
2022/11/03 05:51:22;;;;;;;;;;;;;;;7.74;51.04;101121.25;4947721;28;98408;-64
2022/11/03 05:53:54;;;;;;;;;;;;;;;7.72;50.89;101116.13;4942482;28;98448;-66
2022/11/03 05:56:21;;;;;;;;;;;;;;;7.71;51.36;101111.84;4959303;28;126184;-65
2022/11/03 05:58:48;;;;;;;;;;;;;;;7.71;50.65;101111.03;4942111;28;98612;-63
2022/11/03 06:01:32;;;;;;;;;;;;;;;7.71;50.84;101119.06;4941473;28;98204;-64
2022/11/03 06:04:22;;;;;;;;;;;;;;;7.68;50.75;101117.66;4943484;28;98874;-65
2022/11/03 06:06:59;;;;;;;;;;;;;;;7.67;50.45;101121.41;4946765;28;99124;-65
2022/11/03 06:09:25;;;;;;;;;;;;;;;7.65;51.12;101128.03;4959183;28;97922;-64
2022/11/03 06:11:52;;;;;;;;;;;;;;;7.65;50.75;101117.31;4938649;28;112996;-64
2022/11/03 06:14:23;;;;;;;;;;;;;;;7.64;50.85;101121.84;4942791;28;119924;-65
2022/11/03 06:17:11;;;;;;;;;;;;;;;7.62;50.85;101116.72;4944061;28;98300;-64
2022/11/03 06:19:38;;;;;;;;;;;;;;;7.63;50.60;101117.53;4940411;28;107106;-64
2022/11/03 06:22:14;;;;;;;;;;;;;;;7.63;50.53;101113.00;4940480;28;99178;-64
2022/11/03 06:24:40;;;;;;;;;;;;;;;7.63;50.55;101112.19;4942022;28;98306;-63
2022/11/03 06:27:14;;;;;;;;;;;;;;;7.63;50.76;101113.00;4941642;28;99075;-64
2022/11/03 06:29:40;;;;;;;;;;;;;;;7.63;50.67;101104.94;4940575;28;124600;-63
2022/11/03 06:32:08;;;;;;;;;;;;;;;7.62;50.47;101102.47;4934929;28;104545;-64
2022/11/03 06:34:48;;;;;;;;;;;;;;;7.63;51.02;101099.56;4946601;28;99566;-64
2022/11/03 06:37:34;;;;;;;;;;;;;;;7.62;50.71;101094.41;4941572;28;123695;-65
2022/11/03 06:40:23;;;;;;;;;;;;;;;7.62;50.74;101087.22;4938391;28;126878;-65
2022/11/03 06:42:51;;;;;;;;;;;;;;;7.64;50.52;101089.66;4936530;28;98500;-65
2022/11/03 06:45:19;;;;;;;;;;;;;;;7.63;50.47;101093.38;4935606;28;112583;-63
2022/11/03 06:47:45;;;;;;;;;;;;;;;7.63;50.68;101085.34;4933486;28;99698;-64
2022/11/03 06:50:38;;;;;;;;;;;;;;;7.65;50.54;101082.41;4950575;28;121248;-63
2022/11/03 06:53:04;;;;;;;;;;;;;;;7.68;50.72;101071.22;4931168;28;116359;-66
2022/11/03 06:55:33;;;;;;;;;;;;;;;7.72;50.57;101080.44;4937296;28;128100;-63
2022/11/03 06:58:06;;;;;;;;;;;;;;;7.75;50.53;101074.63;4934914;28;98735;-64
2022/11/03 07:00:36;;;;;;;;;;;;;;;7.80;50.73;101069.34;4933231;28;98510;-64
2022/11/03 07:03:21;;;;;;;;;;;;;;;7.84;50.33;101068.66;4934015;28;100638;-64
2022/11/03 07:05:47;;;;;;;;;;;;;;;7.91;50.31;101073.91;4938146;28;98572;-66
2022/11/03 07:08:25;;;;;;;;;;;;;;;7.98;50.15;101063.84;4930188;28;127106;-65
2022/11/03 07:11:14;;;;;;;;;;;;;;;8.06;50.57;101062.69;4934428;28;98046;-65
2022/11/03 07:13:40;;;;;;;;;;;;;;;8.11;50.06;101063.59;4928901;28;99932;-63
2022/11/03 07:16:15;;;;;;;;;;;;;;;8.18;50.08;101058.09;4935667;28;113667;-64
2022/11/03 07:18:41;;;;;;;;;;;;;;;8.23;49.86;101060.88;4934115;28;105153;-66
2022/11/03 07:22:02;;;;;;;;;;;;;;;8.30;49.73;101063.44;4935165;28;97941;-64
2022/11/03 07:24:40;;;;;;;;;;;;;;;8.38;50.21;101056.91;4933936;28;98549;-65
2022/11/03 07:27:27;;;;;;;;;;;;;;;8.44;50.12;101046.00;4938367;28;109753;-64
2022/11/03 07:29:57;;;;;;;;;;;;;;;8.55;49.91;101049.72;4935543;28;98771;-64
2022/11/03 07:32:29;;;;;;;;;;;;;;;8.62;49.81;101047.72;4934861;28;122226;-65
2022/11/03 07:35:00;;;;;;;;;;;;;;;8.71;49.93;101048.13;4933589;28;116370;-64
2022/11/03 07:37:26;;;;;;;;;;;;;;;8.83;49.99;101044.31;4931825;28;98512;-64
2022/11/03 07:39:52;;;;;;;;;;;;;;;8.94;49.59;101039.16;4950120;28;126933;-64
2022/11/03 07:42:20;;;;;;;;;;;;;;;9.08;49.47;101051.22;4915158;28;128022;-64
2022/11/03 07:44:46;;;;;;;;;;;;;;;9.23;49.70;101047.97;4935953;28;103989;-65
2022/11/03 07:47:14;;;;;;;;;;;;;;;9.38;49.31;101050.09;4934643;28;124829;-64
2022/11/03 07:49:40;;;;;;;;;;;;;;;9.52;48.97;101048.72;4917284;28;99234;-64
2022/11/03 07:52:09;;;;;;;;;;;;;;;9.70;49.66;101042.22;4934661;28;104983;-64
2022/11/03 07:54:35;;;;;;;;;;;;;;;10.00;48.94;101039.16;4941085;28;115189;-64
2022/11/03 07:57:12;;;;;;;;;;;;;;;10.36;48.61;101024.25;4935143;28;99532;-66
2022/11/03 07:59:43;;;;;;;;;;;;;;;10.56;48.40;101031.75;4932233;28;98667;-65
2022/11/03 08:02:30;;;;;;;;;;;;;;;10.71;48.13;101029.22;4936255;28;122236;-67
2022/11/03 08:04:57;;;;;;;;;;;;;;;11.10;47.88;101023.66;4939735;28;97947;-64
2022/11/03 08:07:23;;;;;;;;;;;;;;;11.49;47.99;101018.81;4933766;28;100131;-66
2022/11/03 08:09:49;;;;;;;;;;;;;;;11.85;47.70;101010.13;4936565;28;128382;-65
2022/11/03 08:12:15;;;;;;;;;;;;;;;12.10;47.26;100996.72;4938708;28;117671;-66
2022/11/03 08:14:41;;;;;;;;;;;;;;;12.27;47.56;101005.47;4938670;28;98520;-64
2022/11/03 08:17:07;;;;;;;;;;;;;;;12.58;47.52;101000.13;4937939;28;127839;-64
2022/11/03 08:19:33;;;;;;;;;;;;;;;12.87;47.24;100991.50;4935205;28;128373;-65
2022/11/03 08:21:59;;;;;;;;;;;;;;;13.23;46.98;100995.03;4938899;28;98423;-66
2022/11/03 08:24:25;;;;;;;;;;;;;;;13.60;46.69;100992.03;4938982;28;117774;-65
2022/11/03 08:26:51;;;;;;;;;;;;;;;13.97;46.99;100996.25;4939932;28;128272;-65
2022/11/03 08:29:17;;;;;;;;;;;;;;;14.23;46.77;100977.97;4938311;28;128860;-65
2022/11/03 08:31:43;;;;;;;;;;;;;;;14.60;46.53;100980.19;4938945;28;98671;-65
2022/11/03 08:34:09;;;;;;;;;;;;;;;14.92;46.44;100974.25;4941074;28;115538;-67
2022/11/03 08:36:36;;;;;;;;;;;;;;;15.53;46.11;100970.19;4937241;28;100636;-64
2022/11/03 08:39:02;;;;;;;;;;;;;;;16.05;45.70;100963.06;4939551;28;98276;-66
2022/11/03 08:41:28;;;;;;;;;;;;;;;16.49;45.80;100964.63;4936964;28;126073;-64
2022/11/03 08:43:54;;;;;;;;;;;;;;;16.70;45.99;100967.84;4944206;28;98204;-66
2022/11/03 08:46:20;;;;;;;;;;;;;;;17.05;45.94;100955.59;4937118;28;126569;-65
2022/11/03 08:48:46;;;;;;;;;;;;;;;17.32;45.90;100959.47;4937751;28;128473;-65
2022/11/03 08:51:12;;;;;;;;;;;;;;;17.78;45.95;100959.44;4937524;28;127617;-66
2022/11/03 08:53:38;;;;;;;;;;;;;;;18.38;45.45;100950.25;4940171;28;117222;-65
2022/11/03 08:56:05;;;;;;;;;;;;;;;18.75;45.42;100948.34;4934335;28;128394;-65
2022/11/03 08:58:31;;;;;;;;;;;;;;;19.15;45.76;100945.69;4935202;28;99594;-65
2022/11/03 09:00:56;;;;;;;;;;;;;;;19.50;45.79;100933.00;4940252;28;124645;-66
2022/11/03 09:03:23;;;;;;;;;;;;;;;19.86;45.77;100936.34;4942937;28;108127;-66
2022/11/03 09:05:48;;;;;;;;;;;;;;;20.34;45.58;100923.69;4937025;28;99557;-65
2022/11/03 09:08:14;;;;;;;;;;;;;;;20.54;45.83;100925.78;4936649;28;127455;-67
2022/11/03 09:10:40;;;;;;;;;;;;;;;20.79;45.93;100915.16;4949685;27;128361;-65
2022/11/03 09:13:06;;;;;;;;;;;;;;;21.13;45.77;100916.19;4939659;28;97842;-66
2022/11/03 09:15:32;;;;;;;;;;;;;;;21.34;46.01;100911.63;4948440;28;98798;-65
2022/11/03 09:17:58;;;;;;;;;;;;;;;21.54;45.80;100905.41;4934714;28;126178;-64
2022/11/03 09:20:24;;;;;;;;;;;;;;;21.68;46.38;100901.59;4938372;28;127740;-65
2022/11/03 09:22:50;;;;;;;;;;;;;;;21.78;46.54;100904.78;4939156;28;99607;-65
2022/11/03 09:25:16;;;;;;;;;;;;;;;21.93;46.52;100910.78;4940147;28;128121;-65
2022/11/03 09:27:42;;;;;;;;;;;;;;;22.05;46.49;100884.25;4936344;28;98597;-66
2022/11/03 09:30:08;;;;;;;;;;;;;;;22.22;46.81;100885.28;4941804;28;98436;-66
2022/11/03 09:32:34;;;;;;;;;;;;;;;22.30;46.82;100887.16;4939054;28;97970;-66
2022/11/03 09:35:00;;;;;;;;;;;;;;;22.35;47.09;100880.63;4940979;28;99761;-65
2022/11/03 09:37:27;;;;;;;;;;;;;;;22.36;47.02;100880.31;4937738;28;127401;-66
2022/11/03 09:39:53;;;;;;;;;;;;;;;22.41;47.03;100876.56;4939903;28;98243;-65
2022/11/03 09:42:19;;;;;;;;;;;;;;;22.42;47.22;100867.19;4936121;28;98108;-66
2022/11/03 09:44:49;;;;;;;;;;;;;;;22.29;47.29;100858.09;4932406;28;129496;-67
2022/11/03 09:47:21;;;;;;;;;;;;;;;22.13;47.57;100852.41;4938080;28;98755;-66
2022/11/03 09:49:47;;;;;;;;;;;;;;;22.05;47.75;100856.81;4938775;28;118955;-66
2022/11/03 09:52:14;;;;;;;;;;;;;;;21.99;47.93;100858.13;4936484;28;116865;-67
2022/11/03 09:54:40;;;;;;;;;;;;;;;21.93;47.73;100844.94;4937918;28;98633;-65
2022/11/03 09:57:11;;;;;;;;;;;;;;;21.86;47.90;100841.94;4942122;28;125846;-65
2022/11/03 09:59:38;;;;;;;;;;;;;;;21.78;48.06;100840.88;4936503;28;110393;-65
2022/11/03 10:02:10;;;;;;;;;;;;;;;21.71;48.17;100835.91;4938007;28;98396;-65
2022/11/03 10:04:36;;;;;;;;;;;;;;;21.65;48.35;100841.91;4931642;28;99017;-66
2022/11/03 10:07:03;;;;;;;;;;;;;;;21.56;48.30;100834.56;4939648;28;114391;-65
2022/11/03 10:09:29;;;;;;;;;;;;;;;21.48;48.50;100824.44;4937326;28;118746;-65
2022/11/03 10:11:55;;;;;;;;;;;;;;;21.42;48.49;100824.97;4938520;28;117663;-65
2022/11/03 10:14:21;;;;;;;;;;;;;;;21.35;48.51;100821.97;4933789;28;128702;-65
2022/11/03 10:17:01;;;;;;;;;;;;;;;21.27;48.77;100823.59;4939356;28;126962;-65
2022/11/03 10:19:27;;;;;;;;;;;;;;;21.21;48.71;100809.25;4943381;28;98191;-66
2022/11/03 10:21:52;;;;;;;;;;;;;;;21.15;48.70;100798.81;4920528;28;97935;-65
2022/11/03 10:24:18;;;;;;;;;;;;;;;21.12;48.75;100794.00;4936815;28;128333;-65
2022/11/03 10:26:48;;;;;;;;;;;;;;;21.11;48.74;100786.91;4935865;28;128421;-64
2022/11/03 10:29:40;;;;;;;;;;;;;;;21.11;48.83;100781.44;4938382;28;98448;-66
2022/11/03 10:32:26;;;;;;;;;;;;;;;21.13;48.57;100766.25;4938679;28;116815;-65
2022/11/03 10:34:52;;;;;;;;;;;;;;;21.19;48.53;100756.72;4927886;28;125905;-66
2022/11/03 10:37:25;;;;;;;;;;;;;;;21.27;48.38;100750.38;4938559;28;127938;-64
2022/11/03 10:39:52;;;;;;;;;;;;;;;21.36;48.58;100755.81;4934457;28;98702;-65
2022/11/03 10:42:18;;;;;;;;;;;;;;;21.46;48.43;100749.94;4934630;28;99283;-65
2022/11/03 10:44:44;;;;;;;;;;;;;;;21.56;48.39;100748.75;4937222;28;98573;-65
2022/11/03 10:47:40;;;;;;;;;;;;;;;21.67;48.39;100741.72;4935701;28;127141;-65
2022/11/03 10:50:25;;;;;;;;;;;;;;;21.77;48.17;100748.72;4927913;28;109137;-65
2022/11/03 10:52:51;;;;;;;;;;;;;;;21.81;48.47;100739.50;4937099;28;98709;-65
2022/11/03 10:55:18;;;;;;;;;;;;;;;21.79;48.52;100738.22;4935591;28;127271;-65
2022/11/03 10:57:44;;;;;;;;;;;;;;;21.70;48.58;100726.53;4935939;28;99108;-66
2022/11/03 11:00:15;;;;;;;;;;;;;;;21.55;48.70;100728.75;4938776;28;98201;-65
2022/11/03 11:02:47;;;;;;;;;;;;;;;21.43;48.99;100720.47;4943037;28;97913;-65
2022/11/03 11:05:15;;;;;;;;;;;;;;;21.32;49.07;100717.31;4937622;28;121152;-64
2022/11/03 11:07:42;;;;;;;;;;;;;;;21.23;48.97;100713.00;4939907;28;98872;-64
2022/11/03 11:10:19;;;;;;;;;;;;;;;21.13;48.97;100703.22;4938004;28;97795;-64
2022/11/03 11:13:25;;;;;;;;;;;;;;;21.04;49.04;100691.53;4944207;28;98486;-66
2022/11/03 11:15:53;;;;;;;;;;;;;;;20.95;49.00;100688.03;4935209;28;98308;-64
2022/11/03 11:18:28;;;;;;;;;;;;;;;20.90;49.04;100680.78;4932084;28;98847;-64
2022/11/03 11:21:00;;;;;;;;;;;;;;;20.81;49.10;100683.59;4934950;28;100238;-65
2022/11/03 11:23:26;;;;;;;;;;;;;;;20.72;49.04;100680.09;4936429;28;111380;-66
2022/11/03 11:26:08;;;;;;;;;;;;;;;20.64;49.24;100674.69;4936778;28;98822;-64
2022/11/03 11:28:54;;;;;;;;;;;;;;;20.55;49.17;100677.44;4935761;28;98228;-65
2022/11/03 11:31:26;;;;;;;;;;;;;;;20.46;49.17;100662.97;4931891;28;98486;-65
2022/11/03 11:34:20;;;;;;;;;;;;;;;20.39;49.13;100655.25;4936968;28;97866;-65
2022/11/03 11:36:55;;;;;;;;;;;;;;;20.32;49.28;100660.44;4937775;28;99183;-65
2022/11/03 11:39:26;;;;;;;;;;;;;;;20.28;49.19;100651.28;4944836;28;98634;-65
2022/11/03 11:42:18;;;;;;;;;;;;;;;20.25;49.20;100647.28;4937828;28;98802;-65
2022/11/03 11:44:44;;;;;;;;;;;;;;;20.22;49.08;100644.38;4939386;28;98565;-65
2022/11/03 11:47:38;;;;;;;;;;;;;;;20.17;49.20;100641.84;4939293;28;99186;-65
2022/11/03 11:50:10;;;;;;;;;;;;;;;20.10;49.29;100642.31;4938474;28;100004;-65
2022/11/03 11:52:43;;;;;;;;;;;;;;;20.02;49.25;100637.69;4937689;28;99093;-66
2022/11/03 11:55:19;;;;;;;;;;;;;;;19.98;49.61;100625.78;4920135;28;98347;-66
2022/11/03 11:57:45;;;;;;;;;;;;;;;19.96;49.50;100625.31;4935961;28;124665;-66
2022/11/03 12:00:19;;;;;;;;;;;;;;;19.92;49.51;100616.94;4937909;28;100078;-66
2022/11/03 12:02:45;;;;;;;;;;;;;;;19.86;49.63;100607.31;4938195;28;100141;-64
2022/11/03 12:05:18;;;;;;;;;;;;;;;19.80;49.66;100601.22;4940406;28;117489;-65
2022/11/03 12:07:44;;;;;;;;;;;;;;;19.73;49.63;100600.94;4939943;28;126120;-64
2022/11/03 12:10:15;;;;;;;;;;;;;;;19.68;49.74;100594.81;4942182;28;99202;-66
2022/11/03 12:12:41;;;;;;;;;;;;;;;19.61;49.65;100581.63;4938444;28;98521;-65
2022/11/03 12:15:45;;;;;;;;;;;;;;;19.56;49.80;100584.50;4923619;28;117298;-64
2022/11/03 12:18:37;;;;;;;;;;;;;;;19.48;49.77;100575.19;4939041;28;98376;-65
2022/11/03 12:21:05;;;;;;;;;;;;;;;19.43;49.69;100577.31;4939725;28;98727;-65
2022/11/03 12:23:35;;;;;;;;;;;;;;;19.37;49.86;100571.19;4936560;28;98802;-66
2022/11/03 12:26:03;;;;;;;;;;;;;;;19.32;49.83;100572.16;4940677;28;98158;-65
2022/11/03 12:28:36;;;;;;;;;;;;;;;19.28;49.86;100570.41;4939277;28;99136;-64
2022/11/03 12:31:02;;;;;;;;;;;;;;;19.24;49.74;100564.78;4938117;28;98317;-64
2022/11/03 12:33:28;;;;;;;;;;;;;;;19.21;50.01;100557.22;4941865;28;98559;-64
2022/11/03 12:35:54;;;;;;;;;;;;;;;19.19;49.71;100555.97;4936063;28;116718;-66
2022/11/03 12:38:21;;;;;;;;;;;;;;;19.15;49.71;100550.34;4941268;28;98797;-65
2022/11/03 12:40:47;;;;;;;;;;;;;;;19.11;49.76;100547.44;4937197;28;99330;-66
2022/11/03 12:43:13;;;;;;;;;;;;;;;19.09;49.78;100544.22;4935986;28;126865;-64
2022/11/03 12:45:40;;;;;;;;;;;;;;;19.05;49.69;100546.00;4937403;28;114792;-65
2022/11/03 12:48:06;;;;;;;;;;;;;;;19.01;49.63;100545.03;4939736;28;98399;-66
2022/11/03 12:50:32;;;;;;;;;;;;;;;18.96;49.92;100538.94;4937028;28;126216;-65
2022/11/03 12:52:58;;;;;;;;;;;;;;;18.92;49.87;100530.59;4937890;28;99288;-64
2022/11/03 12:55:24;;;;;;;;;;;;;;;18.91;49.88;100539.13;4937694;28;116477;-65
2022/11/03 12:57:50;;;;;;;;;;;;;;;18.92;49.67;100533.31;4935877;28;128143;-65
2022/11/03 13:00:16;;;;;;;;;;;;;;;18.95;49.71;100531.88;4916955;28;127722;-64
2022/11/03 13:02:42;;;;;;;;;;;;;;;19.02;49.46;100526.72;4938763;28;98014;-66
2022/11/03 13:05:08;;;;;;;;;;;;;;;19.09;49.52;100521.56;4937350;28;116198;-65
2022/11/03 13:07:34;;;;;;;;;;;;;;;19.11;49.32;100513.88;4937031;28;125990;-64
2022/11/03 13:10:00;;;;;;;;;;;;;;;19.11;49.58;100500.22;4937399;28;128936;-66